createdAt,value
2023-05-23T00:01:09.120Z,7.00
2023-05-23T00:03:37.309Z,7.75
2023-05-23T00:06:07.086Z,6.68
2023-05-23T00:08:34.825Z,7.00
2023-05-23T00:11:02.112Z,6.95
2023-05-23T00:13:29.348Z,7.47
2023-05-23T00:15:57.300Z,7.28
2023-05-23T00:18:24.844Z,6.35
2023-05-23T00:20:52.171Z,7.32
2023-05-23T00:23:20.700Z,7.70
2023-05-23T00:25:52.689Z,7.18
2023-05-23T00:28:20.815Z,7.00
2023-05-23T00:30:51.666Z,6.18
2023-05-23T00:33:21.888Z,7.10
2023-05-23T00:35:49.331Z,7.30
2023-05-23T00:38:17.483Z,6.53
2023-05-23T00:40:44.786Z,7.25
2023-05-23T00:43:12.426Z,7.63
2023-05-23T00:45:40.650Z,7.32
2023-05-23T00:48:09.001Z,7.38
2023-05-23T00:50:36.453Z,5.82
2023-05-23T00:53:04.543Z,7.13
2023-05-23T00:55:32.770Z,6.00
2023-05-23T00:58:00.758Z,6.70
2023-05-23T01:00:28.905Z,7.32
2023-05-23T01:02:56.621Z,7.05
2023-05-23T01:05:25.110Z,7.25
2023-05-23T01:07:52.854Z,6.35
2023-05-23T01:10:25.805Z,7.00
2023-05-23T01:13:26.853Z,6.18
2023-05-23T01:16:06.100Z,7.47
2023-05-23T01:18:58.307Z,6.13
2023-05-23T01:21:26.901Z,6.45
2023-05-23T01:24:21.694Z,7.28
2023-05-23T01:27:07.941Z,7.22
2023-05-23T01:29:41.063Z,6.45
2023-05-23T01:32:11.837Z,6.60
2023-05-23T01:34:41.203Z,6.47
2023-05-23T01:37:14.540Z,6.20
2023-05-23T01:39:42.380Z,6.32
2023-05-23T01:42:09.859Z,6.47
2023-05-23T01:44:38.150Z,7.03
2023-05-23T01:47:07.989Z,7.13
2023-05-23T01:49:36.881Z,7.05
2023-05-23T01:52:05.898Z,6.15
2023-05-23T01:54:35.376Z,6.82
2023-05-23T01:57:03.518Z,7.18
2023-05-23T01:59:30.879Z,6.60
2023-05-23T02:01:58.711Z,6.03
2023-05-23T02:04:27.752Z,7.28
2023-05-23T02:06:55.021Z,6.60
2023-05-23T02:09:22.477Z,9.32
2023-05-23T02:11:50.042Z,6.95
2023-05-23T02:14:18.522Z,7.30
2023-05-23T02:16:46.003Z,6.45
2023-05-23T02:19:13.405Z,7.57
2023-05-23T02:21:41.058Z,6.07
2023-05-23T02:24:08.751Z,6.85
2023-05-23T02:26:36.202Z,7.38
2023-05-23T02:29:03.612Z,7.10
2023-05-23T02:31:31.527Z,6.32
2023-05-23T02:33:58.818Z,6.43
2023-05-23T02:36:26.730Z,7.95
2023-05-23T02:38:54.021Z,6.97
2023-05-23T02:41:23.077Z,7.05
2023-05-23T02:43:50.518Z,7.15
2023-05-23T02:46:18.028Z,8.13
2023-05-23T02:48:45.427Z,7.70
2023-05-23T02:51:13.746Z,6.18
2023-05-23T02:53:41.225Z,6.45
2023-05-23T02:56:09.805Z,7.45
2023-05-23T02:58:37.190Z,7.22
2023-05-23T03:01:07.023Z,5.80
2023-05-23T03:03:35.408Z,6.65
2023-05-23T03:06:06.278Z,6.63
2023-05-23T03:08:33.666Z,6.53
2023-05-23T03:11:00.924Z,6.45
2023-05-23T03:13:30.527Z,5.97
2023-05-23T03:15:57.876Z,6.78
2023-05-23T03:18:25.202Z,6.32
2023-05-23T03:20:52.507Z,7.03
2023-05-23T03:23:23.209Z,7.18
2023-05-23T03:25:50.614Z,7.13
2023-05-23T03:28:17.925Z,6.82
2023-05-23T03:30:45.703Z,7.38
2023-05-23T03:33:13.227Z,6.95
2023-05-23T03:35:40.738Z,6.82
2023-05-23T03:38:08.450Z,7.50
2023-05-23T03:40:35.864Z,7.00
2023-05-23T03:43:04.901Z,7.45
2023-05-23T03:45:34.761Z,8.23
2023-05-23T03:48:05.474Z,7.20
2023-05-23T03:50:33.016Z,7.15
2023-05-23T03:53:00.450Z,8.02
2023-05-23T03:55:27.930Z,7.10
2023-05-23T03:57:55.775Z,7.35
2023-05-23T04:00:23.130Z,7.97
2023-05-23T04:02:52.204Z,7.90
2023-05-23T04:05:23.188Z,7.50
2023-05-23T04:07:51.600Z,7.50
2023-05-23T04:10:19.560Z,8.40
2023-05-23T04:12:47.912Z,8.13
2023-05-23T04:15:17.846Z,8.55
2023-05-23T04:17:53.746Z,7.50
2023-05-23T04:20:22.176Z,7.97
2023-05-23T04:22:49.562Z,8.25
2023-05-23T04:25:18.789Z,8.60
2023-05-23T04:27:54.310Z,6.95
2023-05-23T04:30:22.259Z,7.45
2023-05-23T04:32:50.372Z,8.63
2023-05-23T04:35:18.081Z,8.98
2023-05-23T04:37:46.973Z,8.55
2023-05-23T04:40:16.065Z,8.65
2023-05-23T04:43:02.250Z,8.07
2023-05-23T04:45:54.323Z,8.02
2023-05-23T04:48:55.116Z,7.53
2023-05-23T04:51:22.770Z,8.07
2023-05-23T04:53:57.196Z,9.15
2023-05-23T04:56:28.162Z,8.50
2023-05-23T04:58:56.132Z,8.18
2023-05-23T05:01:24.771Z,8.13
2023-05-23T05:03:52.769Z,7.90
2023-05-23T05:06:21.279Z,8.27
2023-05-23T05:08:48.767Z,9.32
2023-05-23T05:11:16.487Z,7.55
2023-05-23T05:13:44.087Z,7.53
2023-05-23T05:16:11.687Z,8.13
2023-05-23T05:18:39.479Z,7.72
2023-05-23T05:21:08.242Z,8.18
2023-05-23T05:23:37.463Z,7.38
2023-05-23T05:26:06.153Z,7.68
2023-05-23T05:28:33.579Z,7.80
2023-05-23T05:31:04.986Z,8.40
2023-05-23T05:33:36.474Z,7.80
2023-05-23T05:36:10.044Z,8.05
2023-05-23T05:38:37.716Z,6.72
2023-05-23T05:41:06.818Z,7.35
2023-05-23T05:43:39.474Z,8.32
2023-05-23T05:46:06.952Z,8.32
2023-05-23T05:48:34.819Z,7.28
2023-05-23T05:51:06.739Z,7.40
2023-05-23T05:53:35.132Z,7.13
2023-05-23T05:56:03.390Z,7.03
2023-05-23T05:58:32.586Z,8.30
2023-05-23T06:01:02.837Z,6.80
2023-05-23T06:03:30.284Z,7.43
2023-05-23T06:05:59.468Z,8.45
2023-05-23T06:08:27.173Z,7.72
2023-05-23T06:10:54.672Z,7.40
2023-05-23T06:13:22.816Z,7.25
2023-05-23T06:15:53.871Z,7.50
2023-05-23T06:18:21.451Z,7.53
2023-05-23T06:20:49.897Z,7.93
2023-05-23T06:23:18.552Z,7.75
2023-05-23T06:25:47.450Z,7.75
2023-05-23T06:28:14.950Z,7.47
2023-05-23T06:30:42.734Z,7.32
2023-05-23T06:33:11.790Z,7.45
2023-05-23T06:35:39.344Z,7.70
2023-05-23T06:38:06.789Z,8.48
2023-05-23T06:40:34.195Z,7.05
2023-05-23T06:43:01.707Z,7.38
2023-05-23T06:45:39.885Z,7.40
2023-05-23T06:48:07.659Z,7.05
2023-05-23T06:50:37.212Z,7.32
2023-05-23T06:53:05.156Z,7.47
2023-05-23T06:55:33.909Z,6.97
2023-05-23T06:58:04.119Z,7.30
2023-05-23T07:00:32.222Z,6.43
2023-05-23T07:03:18.215Z,7.30
2023-05-23T07:05:45.987Z,8.20
2023-05-23T07:08:15.897Z,7.55
2023-05-23T07:10:54.864Z,6.32
2023-05-23T07:13:39.118Z,7.40
2023-05-23T07:16:06.780Z,7.22
2023-05-23T07:18:38.746Z,7.95
2023-05-23T07:21:06.750Z,7.00
2023-05-23T07:23:35.399Z,7.28
2023-05-23T07:26:03.525Z,7.35
2023-05-23T07:28:50.476Z,6.95
2023-05-23T07:31:18.420Z,7.40
2023-05-23T07:33:46.139Z,7.07
2023-05-23T07:36:20.089Z,7.25
2023-05-23T07:38:47.791Z,7.47
2023-05-23T07:41:15.308Z,8.30
2023-05-23T07:43:42.762Z,8.10
2023-05-23T07:46:10.225Z,7.93
2023-05-23T07:48:38.827Z,9.13
2023-05-23T07:51:06.364Z,7.30
2023-05-23T07:53:34.933Z,7.78
2023-05-23T07:56:03.924Z,8.40
2023-05-23T07:58:36.551Z,10.13
2023-05-23T08:01:04.003Z,9.73
2023-05-23T08:03:51.957Z,8.13
2023-05-23T08:06:26.019Z,7.10
2023-05-23T08:08:54.184Z,8.32
2023-05-23T08:11:21.627Z,9.65
2023-05-23T08:13:51.879Z,7.30
2023-05-23T08:16:43.965Z,8.00
2023-05-23T08:19:16.801Z,7.97
2023-05-23T08:21:46.157Z,8.50
2023-05-23T08:24:14.918Z,8.48
2023-05-23T08:26:44.208Z,7.00
2023-05-23T08:29:14.485Z,7.43
2023-05-23T08:31:43.083Z,7.88
2023-05-23T08:34:12.613Z,7.40
2023-05-23T08:36:43.050Z,7.05
2023-05-23T08:39:15.145Z,6.93
2023-05-23T08:41:55.763Z,7.03
2023-05-23T08:44:24.700Z,6.65
2023-05-23T08:47:16.289Z,6.40
2023-05-23T08:49:54.005Z,7.50
2023-05-23T08:52:23.485Z,6.25
2023-05-23T08:54:53.932Z,5.45
2023-05-23T08:57:22.172Z,6.82
2023-05-23T08:59:56.197Z,6.57
2023-05-23T09:02:25.053Z,6.68
2023-05-23T09:04:57.840Z,6.25
2023-05-23T09:07:29.091Z,6.00
2023-05-23T09:09:56.696Z,6.93
2023-05-23T09:12:24.527Z,6.25
2023-05-23T09:14:51.995Z,5.82
2023-05-23T09:17:22.719Z,6.32
2023-05-23T09:19:53.048Z,6.85
2023-05-23T09:22:38.274Z,6.22
2023-05-23T09:25:12.457Z,5.25
2023-05-23T09:27:44.267Z,4.70
2023-05-23T09:30:14.202Z,5.03
2023-05-23T09:32:44.748Z,5.22
2023-05-23T09:35:13.995Z,5.22
2023-05-23T09:37:46.952Z,5.28
2023-05-23T09:40:15.491Z,5.03
2023-05-23T09:42:53.953Z,4.88
2023-05-23T09:45:21.531Z,5.22
2023-05-23T09:47:53.456Z,4.63
2023-05-23T09:50:21.580Z,4.70
2023-05-23T09:52:49.576Z,4.40
2023-05-23T09:55:17.296Z,4.20
2023-05-23T09:57:45.781Z,4.70
2023-05-23T10:00:14.059Z,5.05
2023-05-23T10:03:08.271Z,4.47
2023-05-23T10:05:41.498Z,4.28
2023-05-23T10:08:16.372Z,4.30
2023-05-23T10:11:12.931Z,4.60
2023-05-23T10:13:49.483Z,4.80
2023-05-23T10:16:23.010Z,3.65
2023-05-23T10:18:57.627Z,4.10
2023-05-23T10:21:33.506Z,3.85
2023-05-23T10:24:03.645Z,5.25
2023-05-23T10:26:31.541Z,4.22
2023-05-23T10:29:00.279Z,4.18
2023-05-23T10:31:29.038Z,4.80
2023-05-23T10:34:08.648Z,5.28
2023-05-23T10:36:45.037Z,4.68
2023-05-23T10:39:41.197Z,4.38
2023-05-23T10:42:24.623Z,4.22
2023-05-23T10:44:52.078Z,4.25
2023-05-23T10:47:27.793Z,3.83
2023-05-23T10:49:55.757Z,3.85
2023-05-23T10:52:27.625Z,3.15
2023-05-23T10:54:56.372Z,2.85
2023-05-23T10:57:29.284Z,2.72
2023-05-23T10:59:57.365Z,4.22
2023-05-23T11:02:29.354Z,3.35
2023-05-23T11:05:16.440Z,3.28
2023-05-23T11:07:44.095Z,2.95
2023-05-23T11:10:14.734Z,3.10
2023-05-23T11:12:46.054Z,3.03
2023-05-23T11:15:21.146Z,3.13
2023-05-23T11:17:53.763Z,3.22
2023-05-23T11:20:25.776Z,2.75
2023-05-23T11:23:01.475Z,2.65
2023-05-23T11:25:43.077Z,2.13
2023-05-23T11:28:11.995Z,2.47
2023-05-23T11:30:40.490Z,2.20
2023-05-23T11:33:17.023Z,2.35
2023-05-23T11:35:46.519Z,3.00
2023-05-23T11:38:17.491Z,2.50
2023-05-23T11:40:46.847Z,2.40
2023-05-23T11:43:19.879Z,2.22
2023-05-23T11:45:47.577Z,2.28
2023-05-23T11:48:17.050Z,2.33
2023-05-23T11:50:45.906Z,2.30
2023-05-23T11:53:17.026Z,2.17
2023-05-23T11:56:00.130Z,2.28
2023-05-23T11:58:36.613Z,2.45
2023-05-23T12:01:06.470Z,2.28
2023-05-23T12:03:52.266Z,2.08
2023-05-23T12:06:24.797Z,2.58
2023-05-23T12:08:52.812Z,2.13
2023-05-23T12:11:20.641Z,2.58
2023-05-23T12:13:48.963Z,2.38
2023-05-23T12:16:16.527Z,2.63
2023-05-23T12:18:44.157Z,2.10
2023-05-23T12:21:12.071Z,2.03
2023-05-23T12:23:40.436Z,2.08
2023-05-23T12:26:09.876Z,1.92
2023-05-23T12:28:39.435Z,1.90
2023-05-23T12:31:11.030Z,2.03
2023-05-23T12:33:45.862Z,2.15
2023-05-23T12:36:13.743Z,2.05
2023-05-23T12:38:45.148Z,2.65
2023-05-23T12:41:17.252Z,1.73
2023-05-23T12:43:53.583Z,2.33
2023-05-23T12:46:22.832Z,1.85
2023-05-23T12:48:50.877Z,1.95
2023-05-23T12:51:18.686Z,2.30
2023-05-23T12:53:46.338Z,1.83
2023-05-23T12:56:13.912Z,2.22
2023-05-23T12:58:41.367Z,2.15
2023-05-23T13:01:09.289Z,2.00
2023-05-23T13:03:36.898Z,2.85
2023-05-23T13:06:04.630Z,2.17
2023-05-23T13:08:32.246Z,2.20
2023-05-23T13:10:59.835Z,2.63
2023-05-23T13:13:27.431Z,2.50
2023-05-23T13:15:56.234Z,2.20
2023-05-23T13:18:23.795Z,2.40
2023-05-23T13:20:51.465Z,2.33
2023-05-23T13:23:18.936Z,2.42
2023-05-23T13:25:46.597Z,2.38
2023-05-23T13:28:14.093Z,2.92
2023-05-23T13:30:44.235Z,2.60
2023-05-23T13:33:13.421Z,2.85
2023-05-23T13:35:41.189Z,2.92
2023-05-23T13:38:08.859Z,2.22
2023-05-23T13:40:36.313Z,2.90
2023-05-23T13:43:03.776Z,2.53
2023-05-23T13:45:31.392Z,2.65
2023-05-23T13:47:58.947Z,2.28
2023-05-23T13:50:27.227Z,2.65
2023-05-23T13:52:55.012Z,2.40
2023-05-23T13:55:22.523Z,3.20
2023-05-23T13:57:49.949Z,2.95
2023-05-23T14:00:17.654Z,2.90
2023-05-23T14:02:45.125Z,2.60
2023-05-23T14:05:12.662Z,3.33
2023-05-23T14:07:41.207Z,2.65
2023-05-23T14:10:09.367Z,2.40
2023-05-23T14:12:37.736Z,2.22
2023-05-23T14:15:05.625Z,2.63
2023-05-23T14:17:33.162Z,2.50
2023-05-23T14:20:00.631Z,2.63
2023-05-23T14:22:28.192Z,2.63
2023-05-23T14:24:55.571Z,2.28
2023-05-23T14:27:23.108Z,1.98
2023-05-23T14:29:50.595Z,2.90
2023-05-23T14:32:18.205Z,2.28
2023-05-23T14:34:45.739Z,2.60
2023-05-23T14:37:13.268Z,2.55
2023-05-23T14:39:41.380Z,1.98
2023-05-23T14:42:09.138Z,2.38
2023-05-23T14:44:36.575Z,2.28
2023-05-23T14:47:04.643Z,2.85
2023-05-23T14:49:32.138Z,2.25
2023-05-23T14:51:59.874Z,2.38
2023-05-23T14:54:27.477Z,2.58
2023-05-23T14:56:54.959Z,2.22
2023-05-23T14:59:22.994Z,2.40
2023-05-23T15:01:50.907Z,2.72
2023-05-23T15:04:18.559Z,2.60
2023-05-23T15:06:47.147Z,3.00
2023-05-23T15:09:14.681Z,2.05
2023-05-23T15:11:44.439Z,2.10
2023-05-23T15:14:11.746Z,2.08
2023-05-23T15:16:39.323Z,2.78
2023-05-23T15:19:06.886Z,2.13
2023-05-23T15:21:34.205Z,1.75
2023-05-23T15:24:01.875Z,2.10
2023-05-23T15:26:29.527Z,2.08
2023-05-23T15:28:56.783Z,1.80
2023-05-23T15:31:24.194Z,2.40
2023-05-23T15:33:51.515Z,2.20
2023-05-23T15:36:18.976Z,1.67
2023-05-23T15:38:46.538Z,2.03
2023-05-23T15:41:13.830Z,1.73
2023-05-23T15:43:41.076Z,1.70
2023-05-23T15:46:08.430Z,1.70
2023-05-23T15:48:35.898Z,1.75
2023-05-23T15:51:03.429Z,2.42
2023-05-23T15:53:34.424Z,1.92
2023-05-23T15:56:04.842Z,1.92
2023-05-23T15:58:32.356Z,1.90
2023-05-23T16:00:59.936Z,2.00
2023-05-23T16:03:27.446Z,1.60
2023-05-23T16:05:54.997Z,2.00
2023-05-23T16:08:22.470Z,1.98
2023-05-23T16:10:50.522Z,1.50
2023-05-23T16:13:18.106Z,2.00
2023-05-23T16:15:45.924Z,1.63
2023-05-23T16:18:14.822Z,1.60
2023-05-23T16:20:42.289Z,1.63
2023-05-23T16:23:11.250Z,1.92
2023-05-23T16:25:38.680Z,2.08
2023-05-23T16:28:06.435Z,1.90
2023-05-23T16:30:33.833Z,1.83
2023-05-23T16:33:01.269Z,1.77
2023-05-23T16:35:28.696Z,1.77
2023-05-23T16:37:56.184Z,2.22
2023-05-23T16:40:23.658Z,1.70
2023-05-23T16:42:51.064Z,2.22
2023-05-23T16:45:18.748Z,1.63
2023-05-23T16:47:46.223Z,1.67
2023-05-23T16:50:13.706Z,2.00
2023-05-23T16:52:41.519Z,2.20
2023-05-23T16:55:09.134Z,2.25
2023-05-23T16:57:36.649Z,2.17
2023-05-23T17:00:05.486Z,2.15
2023-05-23T17:02:33.061Z,2.63
2023-05-23T17:05:00.556Z,1.85
2023-05-23T17:07:27.954Z,1.88
2023-05-23T17:09:55.436Z,1.95
2023-05-23T17:12:23.120Z,2.22
2023-05-23T17:14:50.883Z,2.20
2023-05-23T17:17:18.593Z,2.00
2023-05-23T17:19:46.401Z,2.33
2023-05-23T17:22:13.857Z,1.95
2023-05-23T17:24:41.291Z,2.53
2023-05-23T17:27:08.719Z,1.77
2023-05-23T17:29:36.133Z,2.50
2023-05-23T17:32:03.507Z,2.63
2023-05-23T17:34:31.050Z,1.90
2023-05-23T17:36:58.393Z,1.70
2023-05-23T17:39:25.755Z,2.28
2023-05-23T17:41:53.152Z,1.98
2023-05-23T17:44:20.825Z,2.40
2023-05-23T17:46:48.148Z,2.13
2023-05-23T17:49:15.473Z,2.22
2023-05-23T17:51:42.906Z,2.28
2023-05-23T17:54:10.356Z,1.70
2023-05-23T17:56:37.689Z,1.92
2023-05-23T17:59:05.717Z,2.40
2023-05-23T18:01:34.102Z,2.38
2023-05-23T18:04:02.004Z,2.08
2023-05-23T18:06:29.317Z,2.28
2023-05-23T18:08:57.080Z,1.80
2023-05-23T18:11:25.710Z,1.73
2023-05-23T18:13:53.837Z,2.00
2023-05-23T18:16:22.062Z,2.20
2023-05-23T18:18:49.729Z,1.58
2023-05-23T18:21:18.367Z,1.92
2023-05-23T18:23:45.695Z,1.70
2023-05-23T18:26:13.333Z,1.50
2023-05-23T18:28:41.098Z,2.25
2023-05-23T18:31:08.567Z,1.70
2023-05-23T18:33:36.264Z,1.80
2023-05-23T18:36:04.152Z,1.85
2023-05-23T18:38:31.834Z,1.35
2023-05-23T18:40:59.367Z,1.73
2023-05-23T18:43:26.830Z,1.55
2023-05-23T18:45:54.365Z,1.77
2023-05-23T18:48:22.297Z,1.85
2023-05-23T18:50:49.693Z,1.60
2023-05-23T18:53:17.199Z,1.50
2023-05-23T18:55:44.661Z,1.80
2023-05-23T18:58:12.081Z,1.60
2023-05-23T19:00:39.783Z,1.73
2023-05-23T19:03:07.335Z,1.67
2023-05-23T19:05:34.735Z,1.45
2023-05-23T19:08:03.304Z,1.30
2023-05-23T19:10:30.767Z,1.60
2023-05-23T19:12:58.271Z,1.20
2023-05-23T19:15:25.640Z,1.20
2023-05-23T19:17:53.414Z,1.83
2023-05-23T19:20:20.874Z,1.30
2023-05-23T19:22:52.204Z,1.50
2023-05-23T19:25:21.480Z,1.35
2023-05-23T19:27:49.006Z,1.63
2023-05-23T19:30:16.692Z,1.10
2023-05-23T19:32:44.190Z,1.30
2023-05-23T19:35:13.393Z,1.48
2023-05-23T19:37:43.126Z,1.30
2023-05-23T19:40:10.867Z,1.50
2023-05-23T19:42:38.565Z,1.70
2023-05-23T19:45:06.784Z,1.58
2023-05-23T19:47:34.287Z,1.80
2023-05-23T19:50:01.752Z,1.90
2023-05-23T19:52:29.001Z,1.60
2023-05-23T19:54:56.378Z,2.28
2023-05-23T19:57:25.684Z,2.00
2023-05-23T19:59:53.066Z,1.85
2023-05-23T20:02:20.769Z,1.83
2023-05-23T20:04:48.213Z,2.13
2023-05-23T20:07:15.584Z,1.85
2023-05-23T20:09:42.941Z,1.85
2023-05-23T20:12:10.502Z,1.98
2023-05-23T20:14:37.940Z,1.42
2023-05-23T20:17:05.446Z,1.95
2023-05-23T20:19:33.019Z,2.08
2023-05-23T20:22:00.365Z,2.22
2023-05-23T20:24:30.357Z,2.20
2023-05-23T20:26:58.496Z,2.83
2023-05-23T20:29:25.887Z,2.60
2023-05-23T20:31:53.368Z,2.83
2023-05-23T20:34:20.784Z,3.78
2023-05-23T20:36:48.792Z,3.10
2023-05-23T20:39:16.339Z,2.95
2023-05-23T20:41:43.685Z,2.78
2023-05-23T20:44:11.743Z,3.60
2023-05-23T20:46:42.459Z,3.60
2023-05-23T20:49:10.486Z,4.30
2023-05-23T20:51:38.563Z,4.03
2023-05-23T20:54:06.331Z,5.03
2023-05-23T20:56:33.892Z,4.05
2023-05-23T20:59:01.314Z,4.35
2023-05-23T21:01:28.839Z,4.68
2023-05-23T21:03:57.159Z,5.00
2023-05-23T21:06:24.500Z,5.05
2023-05-23T21:08:51.797Z,4.95
2023-05-23T21:11:19.131Z,5.03
2023-05-23T21:13:47.270Z,5.05
2023-05-23T21:16:14.839Z,5.03
2023-05-23T21:18:42.305Z,4.60
2023-05-23T21:21:09.606Z,4.35
2023-05-23T21:23:36.947Z,4.78
2023-05-23T21:26:04.363Z,3.95
2023-05-23T21:28:31.821Z,4.13
2023-05-23T21:30:59.860Z,4.75
2023-05-23T21:33:27.490Z,4.18
2023-05-23T21:35:54.985Z,4.28
2023-05-23T21:38:23.967Z,4.07
2023-05-23T21:40:51.599Z,4.18
2023-05-23T21:43:18.960Z,3.90
2023-05-23T21:45:46.441Z,4.53
2023-05-23T21:48:13.860Z,4.22
2023-05-23T21:50:41.387Z,4.25
2023-05-23T21:53:09.026Z,3.90
2023-05-23T21:55:36.534Z,3.65
2023-05-23T21:58:03.920Z,4.05
2023-05-23T22:00:31.564Z,4.00
2023-05-23T22:02:58.898Z,3.67
2023-05-23T22:05:26.488Z,5.05
2023-05-23T22:07:53.854Z,4.22
2023-05-23T22:10:21.172Z,3.13
2023-05-23T22:12:48.608Z,3.97
2023-05-23T22:15:16.064Z,4.65
2023-05-23T22:17:46.000Z,4.05
2023-05-23T22:20:15.825Z,3.10
2023-05-23T22:22:43.573Z,4.30
2023-05-23T22:25:11.018Z,4.72
2023-05-23T22:27:38.401Z,3.70
2023-05-23T22:30:06.773Z,4.28
2023-05-23T22:32:34.283Z,4.05
2023-05-23T22:35:01.794Z,4.40
2023-05-23T22:37:29.263Z,4.10
2023-05-23T22:39:56.637Z,3.65
2023-05-23T22:42:24.055Z,3.60
2023-05-23T22:44:51.382Z,3.65
2023-05-23T22:47:18.706Z,4.35
2023-05-23T22:49:46.139Z,3.72
2023-05-23T22:52:13.645Z,3.47
2023-05-23T22:54:41.514Z,4.13
2023-05-23T22:57:08.934Z,4.20
2023-05-23T22:59:36.168Z,3.90
2023-05-23T23:02:03.718Z,4.60
2023-05-23T23:04:31.365Z,3.50
2023-05-23T23:07:02.583Z,4.88
2023-05-23T23:09:30.046Z,3.75
2023-05-23T23:11:57.336Z,4.10
2023-05-23T23:14:24.756Z,4.38
2023-05-23T23:16:53.302Z,3.75
2023-05-23T23:19:20.657Z,3.50
2023-05-23T23:21:48.006Z,3.42
2023-05-23T23:24:15.348Z,3.80
2023-05-23T23:26:42.720Z,4.07
2023-05-23T23:29:10.473Z,3.75
2023-05-23T23:31:37.772Z,3.90
2023-05-23T23:34:05.071Z,3.75
2023-05-23T23:36:32.317Z,4.10
2023-05-23T23:38:59.576Z,4.63
2023-05-23T23:41:27.080Z,3.30
2023-05-23T23:43:54.571Z,2.90
2023-05-23T23:46:21.936Z,3.30
2023-05-23T23:48:49.178Z,3.85
2023-05-23T23:51:16.515Z,3.72
2023-05-23T23:53:45.686Z,3.72
2023-05-23T23:56:14.619Z,3.55
2023-05-23T23:58:41.878Z,3.70
